createdAt,value
2023-05-14T00:01:34.988Z,12.25
2023-05-14T00:04:06.027Z,12.21
2023-05-14T00:06:34.179Z,12.17
2023-05-14T00:09:02.458Z,12.17
2023-05-14T00:11:30.759Z,12.14
2023-05-14T00:16:41.110Z,12.12
2023-05-14T00:21:55.765Z,12.17
2023-05-14T00:24:27.862Z,12.17
2023-05-14T00:27:05.852Z,12.18
2023-05-14T00:29:34.618Z,12.15
2023-05-14T00:32:07.307Z,12.15
2023-05-14T00:34:37.458Z,12.15
2023-05-14T00:39:47.919Z,12.11
2023-05-14T00:42:16.308Z,12.11
2023-05-14T00:44:46.026Z,12.10
2023-05-14T00:47:15.435Z,12.06
2023-05-14T00:49:44.275Z,12.01
2023-05-14T00:52:13.241Z,11.98
2023-05-14T00:54:41.994Z,11.93
2023-05-14T00:57:10.465Z,11.87
2023-05-14T00:59:44.553Z,11.85
2023-05-14T01:02:22.013Z,11.78
2023-05-14T01:04:51.418Z,11.77
2023-05-14T01:07:55.171Z,11.74
2023-05-14T01:10:50.350Z,11.71
2023-05-14T01:16:21.861Z,11.64
2023-05-14T01:18:55.610Z,11.66
2023-05-14T01:21:43.315Z,11.62
2023-05-14T01:24:12.250Z,11.59
2023-05-14T01:26:41.072Z,11.56
2023-05-14T01:29:09.204Z,11.49
2023-05-14T01:31:49.353Z,11.46
2023-05-14T01:34:22.955Z,11.42
2023-05-14T01:36:57.186Z,11.39
2023-05-14T01:39:26.856Z,11.33
2023-05-14T01:41:57.512Z,11.29
2023-05-14T01:44:26.096Z,11.29
2023-05-14T01:46:55.174Z,11.25
2023-05-14T01:49:24.293Z,11.22
2023-05-14T01:51:53.144Z,11.14
2023-05-14T01:54:21.210Z,11.10
2023-05-14T01:56:49.394Z,11.04
2023-05-14T01:59:18.305Z,11.00
2023-05-14T02:01:46.695Z,10.97
2023-05-14T02:04:15.075Z,10.94
2023-05-14T02:06:44.313Z,10.93
2023-05-14T02:09:12.330Z,10.91
2023-05-14T02:11:40.749Z,10.87
2023-05-14T02:14:08.987Z,10.77
2023-05-14T02:16:42.171Z,10.73
2023-05-14T02:19:10.761Z,10.68
2023-05-14T02:21:39.937Z,10.63
2023-05-14T02:24:08.221Z,10.60
2023-05-14T02:26:36.706Z,10.57
2023-05-14T02:29:04.670Z,10.55
2023-05-14T02:31:32.819Z,10.50
2023-05-14T02:34:03.252Z,10.45
2023-05-14T02:36:35.660Z,10.38
2023-05-14T02:39:04.935Z,10.36
2023-05-14T02:41:33.263Z,10.30
2023-05-14T02:44:01.618Z,10.29
2023-05-14T02:46:30.921Z,10.29
2023-05-14T02:48:59.133Z,10.28
2023-05-14T02:51:27.374Z,10.28
2023-05-14T02:53:55.628Z,10.23
2023-05-14T02:56:26.553Z,10.19
2023-05-14T02:58:57.380Z,10.15
2023-05-14T03:01:28.989Z,10.13
2023-05-14T03:04:00.924Z,10.08
2023-05-14T03:06:29.126Z,10.05
2023-05-14T03:08:59.768Z,10.04
2023-05-14T03:11:27.668Z,10.02
2023-05-14T03:13:55.800Z,10.01
2023-05-14T03:16:23.972Z,9.95
2023-05-14T03:18:54.563Z,9.94
2023-05-14T03:21:22.670Z,9.88
2023-05-14T03:23:50.898Z,9.91
2023-05-14T03:26:20.206Z,9.90
2023-05-14T03:28:48.772Z,9.88
2023-05-14T03:31:17.126Z,9.90
2023-05-14T03:33:45.555Z,9.90
2023-05-14T03:36:13.544Z,9.88
2023-05-14T03:38:41.555Z,9.91
2023-05-14T03:41:09.694Z,9.85
2023-05-14T03:43:38.354Z,9.85
2023-05-14T03:46:06.678Z,9.83
2023-05-14T03:48:34.930Z,9.81
2023-05-14T03:51:05.740Z,9.81
2023-05-14T03:53:35.511Z,9.77
2023-05-14T03:56:05.940Z,9.77
2023-05-14T03:58:33.972Z,9.78
2023-05-14T04:01:02.189Z,9.78
2023-05-14T04:03:33.057Z,9.75
2023-05-14T04:06:01.998Z,9.75
2023-05-14T04:08:30.454Z,9.77
2023-05-14T04:10:58.521Z,9.73
2023-05-14T04:13:26.668Z,9.74
2023-05-14T04:15:56.511Z,9.77
2023-05-14T04:18:27.196Z,9.83
2023-05-14T04:20:56.726Z,9.93
2023-05-14T04:23:27.935Z,10.02
2023-05-14T04:25:57.512Z,10.11
2023-05-14T04:28:26.543Z,10.26
2023-05-14T04:30:55.307Z,10.39
2023-05-14T04:33:25.372Z,10.36
2023-05-14T04:35:56.511Z,10.33
2023-05-14T04:38:26.016Z,10.40
2023-05-14T04:40:55.441Z,10.40
2023-05-14T04:43:26.528Z,10.52
2023-05-14T04:45:55.042Z,10.67
2023-05-14T04:48:23.455Z,10.88
2023-05-14T04:50:52.235Z,11.04
2023-05-14T04:53:20.429Z,11.47
2023-05-14T04:55:48.504Z,12.01
2023-05-14T04:58:16.671Z,12.22
2023-05-14T05:00:45.873Z,12.43
2023-05-14T05:03:14.024Z,12.79
2023-05-14T05:05:42.415Z,12.94
2023-05-14T05:08:11.636Z,13.02
2023-05-14T05:13:21.768Z,13.64
2023-05-14T05:15:49.750Z,14.01
2023-05-14T05:18:20.180Z,14.25
2023-05-14T05:20:48.279Z,13.78
2023-05-14T05:23:16.489Z,14.00
2023-05-14T05:25:44.753Z,14.21
2023-05-14T05:28:12.624Z,14.24
2023-05-14T05:30:41.119Z,14.59
2023-05-14T05:33:09.840Z,15.25
2023-05-14T05:35:40.839Z,15.60
2023-05-14T05:38:09.104Z,15.49
2023-05-14T05:43:22.680Z,15.24
2023-05-14T05:45:51.278Z,14.98
2023-05-14T05:48:19.625Z,15.19
2023-05-14T05:50:56.336Z,15.47
2023-05-14T05:53:25.972Z,16.15
2023-05-14T05:55:55.325Z,15.73
2023-05-14T05:58:25.980Z,15.74
2023-05-14T06:00:56.407Z,15.35
2023-05-14T06:03:25.086Z,16.04
2023-05-14T06:05:53.599Z,16.70
2023-05-14T06:08:22.282Z,16.05
2023-05-14T06:10:50.317Z,16.30
2023-05-14T06:13:18.596Z,16.62
2023-05-14T06:15:49.717Z,16.46
2023-05-14T06:18:25.724Z,16.72
2023-05-14T06:20:54.480Z,16.42
2023-05-14T06:23:24.968Z,16.26
2023-05-14T06:25:58.871Z,16.77
2023-05-14T06:28:29.666Z,16.57
2023-05-14T06:31:07.076Z,16.57
2023-05-14T06:33:43.890Z,15.71
2023-05-14T06:36:13.935Z,15.28
2023-05-14T06:38:44.760Z,15.07
2023-05-14T06:41:16.184Z,14.60
2023-05-14T06:43:44.585Z,14.33
2023-05-14T06:46:12.974Z,14.22
2023-05-14T06:48:43.270Z,14.63
2023-05-14T06:51:16.625Z,15.65
2023-05-14T06:53:49.753Z,15.91
2023-05-14T06:56:18.779Z,15.50
2023-05-14T06:58:50.738Z,15.43
2023-05-14T07:01:21.661Z,16.15
2023-05-14T07:03:51.035Z,16.74
2023-05-14T07:06:19.411Z,15.90
2023-05-14T07:08:47.532Z,16.83
2023-05-14T07:11:20.565Z,17.70
2023-05-14T07:13:48.729Z,17.11
2023-05-14T07:16:19.375Z,16.24
2023-05-14T07:18:47.699Z,16.39
2023-05-14T07:21:16.553Z,16.69
2023-05-14T07:23:44.562Z,16.67
2023-05-14T07:26:12.565Z,16.99
2023-05-14T07:28:40.814Z,16.99
2023-05-14T07:31:09.322Z,17.04
2023-05-14T07:33:38.012Z,17.40
2023-05-14T07:36:06.711Z,18.08
2023-05-14T07:38:35.155Z,18.66
2023-05-14T07:41:03.349Z,19.29
2023-05-14T07:43:32.213Z,19.69
2023-05-14T07:46:03.784Z,19.39
2023-05-14T07:51:17.200Z,19.73
2023-05-14T07:56:27.867Z,19.66
2023-05-14T07:58:57.916Z,19.10
2023-05-14T08:01:26.801Z,19.74
2023-05-14T08:03:55.179Z,20.27
2023-05-14T08:06:25.490Z,20.76
2023-05-14T08:08:53.631Z,20.87
2023-05-14T08:11:22.655Z,20.86
2023-05-14T08:13:50.699Z,20.56
2023-05-14T08:16:18.870Z,20.52
2023-05-14T08:18:48.129Z,20.51
2023-05-14T08:21:16.567Z,19.98
2023-05-14T08:23:44.668Z,20.22
2023-05-14T08:26:15.546Z,19.89
2023-05-14T08:28:46.510Z,19.69
2023-05-14T08:31:14.904Z,20.06
2023-05-14T08:33:43.375Z,20.17
2023-05-14T08:36:11.952Z,20.53
2023-05-14T08:38:42.990Z,20.34
2023-05-14T08:41:13.076Z,20.77
2023-05-14T08:43:49.615Z,20.59
2023-05-14T08:46:23.249Z,20.34
2023-05-14T08:49:12.117Z,20.34
2023-05-14T08:51:57.678Z,20.27
2023-05-14T08:54:35.173Z,20.28
2023-05-14T08:57:13.336Z,20.41
2023-05-14T08:59:49.760Z,20.35
2023-05-14T09:02:37.702Z,20.08
2023-05-14T09:05:09.588Z,19.94
2023-05-14T09:08:05.981Z,19.79
2023-05-14T09:10:42.296Z,20.16
2023-05-14T09:13:26.321Z,20.21
2023-05-14T09:16:02.803Z,20.37
2023-05-14T09:18:48.054Z,20.46
2023-05-14T09:21:33.647Z,20.62
2023-05-14T09:24:05.785Z,20.65
2023-05-14T09:26:35.473Z,20.59
2023-05-14T09:29:04.257Z,20.63
2023-05-14T09:34:43.263Z,20.97
2023-05-14T09:37:11.986Z,21.11
2023-05-14T09:39:40.687Z,21.37
2023-05-14T09:42:10.030Z,21.42
2023-05-14T09:44:43.883Z,21.42
2023-05-14T09:47:17.092Z,21.17
2023-05-14T09:49:48.671Z,21.25
2023-05-14T09:52:19.897Z,21.20
2023-05-14T09:54:51.280Z,20.99
2023-05-14T09:57:20.538Z,21.14
2023-05-14T09:59:49.160Z,20.87
2023-05-14T10:02:27.530Z,20.82
2023-05-14T10:04:59.173Z,20.76
2023-05-14T10:07:33.920Z,21.07
2023-05-14T10:10:09.008Z,21.20
2023-05-14T10:12:45.219Z,21.39
2023-05-14T10:15:24.997Z,21.21
2023-05-14T10:17:58.802Z,21.15
2023-05-14T10:20:28.153Z,21.35
2023-05-14T10:23:00.349Z,21.10
2023-05-14T10:25:31.550Z,21.08
2023-05-14T10:28:03.758Z,21.08
2023-05-14T10:30:34.542Z,21.18
2023-05-14T10:33:10.130Z,21.15
2023-05-14T10:36:05.485Z,21.35
2023-05-14T10:38:40.760Z,21.51
2023-05-14T10:41:23.662Z,21.61
2023-05-14T10:43:52.757Z,21.62
2023-05-14T10:46:21.461Z,21.38
2023-05-14T10:48:51.077Z,21.42
2023-05-14T10:51:23.190Z,21.48
2023-05-14T10:53:56.967Z,21.73
2023-05-14T10:56:39.974Z,21.93
2023-05-14T10:59:11.668Z,21.78
2023-05-14T11:01:42.577Z,21.45
2023-05-14T11:04:19.264Z,21.56
2023-05-14T11:06:48.788Z,21.54
2023-05-14T11:09:20.315Z,21.69
2023-05-14T11:11:52.896Z,21.55
2023-05-14T11:14:22.896Z,21.58
2023-05-14T11:16:51.342Z,21.86
2023-05-14T11:19:25.608Z,21.85
2023-05-14T11:21:53.784Z,21.83
2023-05-14T11:24:22.196Z,21.89
2023-05-14T11:26:51.140Z,22.00
2023-05-14T11:29:19.536Z,22.16
2023-05-14T11:31:48.152Z,22.13
2023-05-14T11:34:16.651Z,22.22
2023-05-14T11:36:45.091Z,22.31
2023-05-14T11:39:19.528Z,22.13
2023-05-14T11:41:47.776Z,22.28
2023-05-14T11:44:16.099Z,22.11
2023-05-14T11:46:55.607Z,22.37
2023-05-14T11:49:27.651Z,22.35
2023-05-14T11:52:05.386Z,22.21
2023-05-14T11:54:36.034Z,22.34
2023-05-14T11:57:14.982Z,22.28
2023-05-14T11:59:43.472Z,22.75
2023-05-14T12:02:14.607Z,22.45
2023-05-14T12:04:43.812Z,22.44
2023-05-14T12:07:17.981Z,22.51
2023-05-14T12:09:51.813Z,22.28
2023-05-14T12:12:22.427Z,22.25
2023-05-14T12:14:52.693Z,22.35
2023-05-14T12:17:24.474Z,22.16
2023-05-14T12:19:53.871Z,22.25
2023-05-14T12:22:23.277Z,22.20
2023-05-14T12:24:56.104Z,22.28
2023-05-14T12:27:26.640Z,22.41
2023-05-14T12:30:19.958Z,22.25
2023-05-14T12:32:52.147Z,22.51
2023-05-14T12:35:23.394Z,22.59
2023-05-14T12:37:52.052Z,22.38
2023-05-14T12:40:20.702Z,22.43
2023-05-14T12:42:48.754Z,22.47
2023-05-14T12:45:16.983Z,22.47
2023-05-14T12:47:47.916Z,22.10
2023-05-14T12:50:16.503Z,22.13
2023-05-14T12:52:48.639Z,22.31
2023-05-14T12:55:17.307Z,22.49
2023-05-14T12:57:50.460Z,22.65
2023-05-14T13:00:21.378Z,22.56
2023-05-14T13:02:49.830Z,22.55
2023-05-14T13:05:26.216Z,22.21
2023-05-14T13:07:54.947Z,22.27
2023-05-14T13:10:23.179Z,22.24
2023-05-14T13:12:55.262Z,22.47
2023-05-14T13:15:23.876Z,22.52
2023-05-14T13:17:53.096Z,22.79
2023-05-14T13:20:23.640Z,22.62
2023-05-14T13:22:51.638Z,22.79
2023-05-14T13:25:20.312Z,22.93
2023-05-14T13:27:50.833Z,22.89
2023-05-14T13:30:20.068Z,22.79
2023-05-14T13:32:49.230Z,22.61
2023-05-14T13:35:22.026Z,22.76
2023-05-14T13:37:50.505Z,22.93
2023-05-14T13:40:18.566Z,22.93
2023-05-14T13:42:46.610Z,22.86
2023-05-14T13:45:23.751Z,22.71
2023-05-14T13:47:53.565Z,22.77
2023-05-14T13:50:32.889Z,22.92
2023-05-14T13:53:04.147Z,22.86
2023-05-14T13:55:32.421Z,22.89
2023-05-14T13:58:02.823Z,22.82
2023-05-14T14:00:37.094Z,22.69
2023-05-14T14:03:15.277Z,22.80
2023-05-14T14:05:47.006Z,22.73
2023-05-14T14:08:23.238Z,22.59
2023-05-14T14:10:55.837Z,22.45
2023-05-14T14:13:24.963Z,22.34
2023-05-14T14:15:55.535Z,22.37
2023-05-14T14:18:25.759Z,22.54
2023-05-14T14:20:58.297Z,22.55
2023-05-14T14:23:30.194Z,22.47
2023-05-14T14:26:04.740Z,22.41
2023-05-14T14:28:33.488Z,22.37
2023-05-14T14:31:03.867Z,22.41
2023-05-14T14:33:32.558Z,22.44
2023-05-14T14:36:06.479Z,22.48
2023-05-14T14:38:34.912Z,22.59
2023-05-14T14:41:08.111Z,22.56
2023-05-14T14:43:45.554Z,22.52
2023-05-14T14:46:13.940Z,22.51
2023-05-14T14:48:42.597Z,22.62
2023-05-14T14:51:11.214Z,22.56
2023-05-14T14:53:40.660Z,22.55
2023-05-14T14:56:09.138Z,22.54
2023-05-14T14:58:38.540Z,22.56
2023-05-14T15:01:09.630Z,22.48
2023-05-14T15:03:39.187Z,22.61
2023-05-14T15:06:07.690Z,22.63
2023-05-14T15:08:36.045Z,22.59
2023-05-14T15:11:04.553Z,22.55
2023-05-14T15:13:32.995Z,22.48
2023-05-14T15:16:01.339Z,22.52
2023-05-14T15:18:29.447Z,22.40
2023-05-14T15:20:57.842Z,22.28
2023-05-14T15:23:26.441Z,22.27
2023-05-14T15:25:55.440Z,22.10
2023-05-14T15:28:23.783Z,22.20
2023-05-14T15:30:56.870Z,22.17
2023-05-14T15:33:25.551Z,22.21
2023-05-14T15:35:53.633Z,22.06
2023-05-14T15:38:22.318Z,22.03
2023-05-14T15:40:51.219Z,21.94
2023-05-14T15:43:19.215Z,21.92
2023-05-14T15:45:47.382Z,21.94
2023-05-14T15:48:18.649Z,21.79
2023-05-14T15:50:49.748Z,21.78
2023-05-14T15:53:18.667Z,21.71
2023-05-14T15:55:49.232Z,21.69
2023-05-14T15:58:19.901Z,21.59
2023-05-14T16:00:57.786Z,21.44
2023-05-14T16:03:31.043Z,21.56
2023-05-14T16:08:42.430Z,21.58
2023-05-14T16:13:54.002Z,21.62
2023-05-14T16:16:23.561Z,21.52
2023-05-14T16:18:55.306Z,21.54
2023-05-14T16:21:23.620Z,21.39
2023-05-14T16:23:51.944Z,21.28
2023-05-14T16:26:27.868Z,21.37
2023-05-14T16:28:56.427Z,21.35
2023-05-14T16:31:25.976Z,21.27
2023-05-14T16:33:55.046Z,21.18
2023-05-14T16:36:23.217Z,21.14
2023-05-14T16:39:06.732Z,21.20
2023-05-14T16:44:29.190Z,21.11
2023-05-14T16:46:58.097Z,20.86
2023-05-14T16:49:26.808Z,20.76
2023-05-14T16:51:56.433Z,20.72
2023-05-14T16:54:24.968Z,20.75
2023-05-14T16:56:53.671Z,20.71
2023-05-14T16:59:26.581Z,20.66
2023-05-14T17:01:56.213Z,20.59
2023-05-14T17:04:35.543Z,20.46
2023-05-14T17:07:04.232Z,20.37
2023-05-14T17:09:32.654Z,20.29
2023-05-14T17:12:01.181Z,20.22
2023-05-14T17:14:37.116Z,20.27
2023-05-14T17:17:06.127Z,20.27
2023-05-14T17:19:34.267Z,20.16
2023-05-14T17:22:06.634Z,20.06
2023-05-14T17:24:37.878Z,19.84
2023-05-14T17:27:08.090Z,19.45
2023-05-14T17:29:39.636Z,19.15
2023-05-14T17:32:08.891Z,19.00
2023-05-14T17:34:37.468Z,18.89
2023-05-14T17:37:06.887Z,18.74
2023-05-14T17:39:39.132Z,18.67
2023-05-14T17:42:11.300Z,18.55
2023-05-14T17:44:40.487Z,18.44
2023-05-14T17:47:10.469Z,18.38
2023-05-14T17:49:39.197Z,18.19
2023-05-14T17:52:08.314Z,18.11
2023-05-14T17:54:36.847Z,17.91
2023-05-14T17:57:06.011Z,17.80
2023-05-14T17:59:35.247Z,17.67
2023-05-14T18:02:08.262Z,17.48
2023-05-14T18:04:37.068Z,17.32
2023-05-14T18:07:06.080Z,17.29
2023-05-14T18:09:35.213Z,17.21
2023-05-14T18:12:07.388Z,17.17
2023-05-14T18:14:36.005Z,17.11
2023-05-14T18:17:04.714Z,17.01
2023-05-14T18:19:38.625Z,16.74
2023-05-14T18:22:07.131Z,16.57
2023-05-14T18:24:36.414Z,16.41
2023-05-14T18:27:08.464Z,16.35
2023-05-14T18:29:37.455Z,16.19
2023-05-14T18:32:07.010Z,16.18
2023-05-14T18:34:38.768Z,16.07
2023-05-14T18:37:42.470Z,15.96
2023-05-14T18:40:17.036Z,15.96
2023-05-14T18:42:50.339Z,15.87
2023-05-14T18:45:24.639Z,15.76
2023-05-14T18:47:56.547Z,15.69
2023-05-14T18:50:26.601Z,15.67
2023-05-14T18:52:57.947Z,15.63
2023-05-14T18:55:27.308Z,15.52
2023-05-14T18:57:56.974Z,15.45
2023-05-14T19:00:34.025Z,15.38
2023-05-14T19:03:05.143Z,15.34
2023-05-14T19:05:33.926Z,15.32
2023-05-14T19:08:07.485Z,15.25
2023-05-14T19:10:36.477Z,15.21
2023-05-14T19:13:05.763Z,15.17
2023-05-14T19:15:40.853Z,15.12
2023-05-14T19:18:15.753Z,15.10
2023-05-14T19:20:49.844Z,14.98
2023-05-14T19:23:21.319Z,14.94
2023-05-14T19:25:49.918Z,14.91
2023-05-14T19:28:20.129Z,14.88
2023-05-14T19:30:51.125Z,14.81
2023-05-14T19:33:20.062Z,14.77
2023-05-14T19:35:51.480Z,14.70
2023-05-14T19:38:20.367Z,14.65
2023-05-14T19:40:50.696Z,14.56
2023-05-14T19:43:20.552Z,14.53
2023-05-14T19:45:53.420Z,14.49
2023-05-14T19:48:37.560Z,14.47
2023-05-14T19:51:45.158Z,14.39
2023-05-14T19:54:18.146Z,14.36
2023-05-14T19:56:54.316Z,14.33
2023-05-14T19:59:34.870Z,14.30
2023-05-14T20:02:13.310Z,14.26
2023-05-14T20:05:00.163Z,14.17
2023-05-14T20:10:25.216Z,14.15
2023-05-14T20:12:56.884Z,14.08
2023-05-14T20:15:37.426Z,14.04
2023-05-14T20:18:09.088Z,13.97
2023-05-14T20:20:45.353Z,13.93
2023-05-14T20:23:17.322Z,13.91
2023-05-14T20:25:51.235Z,13.88
2023-05-14T20:28:26.122Z,13.87
2023-05-14T20:31:04.747Z,13.81
2023-05-14T20:33:36.544Z,13.77
2023-05-14T20:36:06.360Z,13.73
2023-05-14T20:38:40.468Z,13.70
2023-05-14T20:41:16.772Z,13.66
2023-05-14T20:44:00.185Z,13.62
2023-05-14T20:46:31.731Z,13.62
2023-05-14T20:49:02.559Z,13.60
2023-05-14T20:51:33.123Z,13.57
2023-05-14T20:54:05.834Z,13.52
2023-05-14T20:56:39.851Z,13.50
2023-05-14T20:59:21.323Z,13.47
2023-05-14T21:02:03.828Z,13.53
2023-05-14T21:07:47.242Z,13.38
2023-05-14T21:10:44.162Z,13.35
2023-05-14T21:13:48.208Z,13.28
2023-05-14T21:16:21.074Z,13.28
2023-05-14T21:19:08.498Z,13.22
2023-05-14T21:21:41.546Z,13.18
2023-05-14T21:24:21.829Z,13.14
2023-05-14T21:26:58.366Z,13.10
2023-05-14T21:32:11.555Z,13.01
2023-05-14T21:37:58.584Z,12.95
2023-05-14T21:40:33.109Z,12.94
2023-05-14T21:43:07.398Z,12.87
2023-05-14T21:45:48.677Z,12.83
2023-05-14T21:48:17.398Z,12.80
2023-05-14T21:51:36.518Z,12.76
2023-05-14T21:56:56.598Z,12.63
2023-05-14T21:59:28.420Z,12.57
2023-05-14T22:10:07.622Z,12.45
2023-05-14T22:12:36.419Z,12.40
2023-05-14T22:15:06.174Z,12.40
2023-05-14T22:17:34.529Z,12.33
2023-05-14T22:20:07.578Z,12.29
2023-05-14T22:22:35.708Z,12.26
2023-05-14T22:25:04.553Z,12.24
2023-05-14T22:27:32.788Z,12.21
2023-05-14T22:30:01.013Z,12.19
2023-05-14T22:32:33.446Z,12.11
2023-05-14T22:35:01.948Z,12.10
2023-05-14T22:37:30.038Z,12.08
2023-05-14T22:39:58.348Z,12.02
2023-05-14T22:42:28.217Z,12.04
2023-05-14T22:44:56.392Z,11.97
2023-05-14T22:47:27.641Z,11.95
2023-05-14T22:49:55.726Z,11.88
2023-05-14T22:52:25.705Z,11.85
2023-05-14T22:54:54.660Z,11.85
2023-05-14T22:57:22.856Z,11.81
2023-05-14T22:59:50.998Z,11.77
2023-05-14T23:02:19.513Z,11.73
2023-05-14T23:04:47.896Z,11.70
2023-05-14T23:07:16.347Z,11.69
2023-05-14T23:09:44.644Z,11.62
2023-05-14T23:12:12.806Z,11.60
2023-05-14T23:14:40.824Z,11.60
2023-05-14T23:17:09.313Z,11.53
2023-05-14T23:19:37.549Z,11.52
2023-05-14T23:22:05.967Z,11.46
2023-05-14T23:24:34.290Z,11.47
2023-05-14T23:27:02.612Z,11.40
2023-05-14T23:29:33.391Z,11.38
2023-05-14T23:32:04.768Z,11.35
2023-05-14T23:34:35.588Z,11.29
2023-05-14T23:37:03.887Z,11.26
2023-05-14T23:39:32.131Z,11.26
2023-05-14T23:42:00.210Z,11.22
2023-05-14T23:44:28.558Z,11.18
2023-05-14T23:46:56.820Z,11.18
2023-05-14T23:49:24.875Z,11.16
2023-05-14T23:51:52.987Z,11.11
2023-05-14T23:54:21.526Z,11.12
2023-05-14T23:56:49.903Z,11.12
2023-05-14T23:59:18.352Z,11.08
